sensor_id;sensor_type;location;lat;lon;timestamp;P1;durP1;ratioP1;P2;durP2;ratioP2
36817;SDS011;22761;51.542;16.450;2024-03-23T00:53:56;19.80;;;13.60;;
36817;SDS011;22761;51.542;16.450;2024-03-23T00:56:23;23.80;;;15.20;;
36817;SDS011;22761;51.542;16.450;2024-03-23T00:58:51;19.90;;;14.20;;
36817;SDS011;22761;51.542;16.450;2024-03-23T01:01:19;22.60;;;15.40;;
36817;SDS011;22761;51.542;16.450;2024-03-23T01:03:48;21.50;;;14.30;;
36817;SDS011;22761;51.542;16.450;2024-03-23T01:06:16;26.60;;;16.70;;
36817;SDS011;22761;51.542;16.450;2024-03-23T01:08:44;23.10;;;15.30;;
36817;SDS011;22761;51.542;16.450;2024-03-23T01:11:12;23.60;;;16.20;;
36817;SDS011;22761;51.542;16.450;2024-03-23T01:13:40;23.50;;;15.40;;
36817;SDS011;22761;51.542;16.450;2024-03-23T01:16:08;25.30;;;17.10;;
36817;SDS011;22761;51.542;16.450;2024-03-23T01:18:36;24.90;;;15.90;;
36817;SDS011;22761;51.542;16.450;2024-03-23T01:21:04;23.60;;;16.50;;
36817;SDS011;22761;51.542;16.450;2024-03-23T01:23:31;25.20;;;17.20;;
36817;SDS011;22761;51.542;16.450;2024-03-23T01:25:59;25.70;;;16.50;;
36817;SDS011;22761;51.542;16.450;2024-03-23T01:28:27;23.60;;;16.40;;
36817;SDS011;22761;51.542;16.450;2024-03-23T01:30:56;24.90;;;16.20;;
36817;SDS011;22761;51.542;16.450;2024-03-23T01:33:23;25.50;;;16.20;;
36817;SDS011;22761;51.542;16.450;2024-03-23T01:35:51;26.00;;;16.30;;
36817;SDS011;22761;51.542;16.450;2024-03-23T01:38:19;24.20;;;16.90;;
36817;SDS011;22761;51.542;16.450;2024-03-23T01:40:47;26.70;;;16.30;;
36817;SDS011;22761;51.542;16.450;2024-03-23T01:43:15;27.90;;;17.00;;
36817;SDS011;22761;51.542;16.450;2024-03-23T01:45:43;25.30;;;17.20;;
36817;SDS011;22761;51.542;16.450;2024-03-23T01:48:11;28.50;;;17.30;;
36817;SDS011;22761;51.542;16.450;2024-03-23T01:50:40;24.90;;;16.00;;
36817;SDS011;22761;51.542;16.450;2024-03-23T01:53:08;27.10;;;16.90;;
36817;SDS011;22761;51.542;16.450;2024-03-23T01:55:36;26.60;;;16.90;;
36817;SDS011;22761;51.542;16.450;2024-03-23T01:58:06;27.10;;;16.60;;
36817;SDS011;22761;51.542;16.450;2024-03-23T02:00:34;27.50;;;16.30;;
36817;SDS011;22761;51.542;16.450;2024-03-23T02:03:02;23.60;;;15.90;;
36817;SDS011;22761;51.542;16.450;2024-03-23T02:05:30;25.60;;;16.60;;
36817;SDS011;22761;51.542;16.450;2024-03-23T02:07:58;24.30;;;15.90;;
36817;SDS011;22761;51.542;16.450;2024-03-23T02:10:26;25.10;;;16.50;;
36817;SDS011;22761;51.542;16.450;2024-03-23T02:12:54;25.20;;;16.20;;
36817;SDS011;22761;51.542;16.450;2024-03-23T02:15:22;24.20;;;16.60;;
36817;SDS011;22761;51.542;16.450;2024-03-23T02:17:50;25.90;;;16.30;;
36817;SDS011;22761;51.542;16.450;2024-03-23T02:20:18;24.10;;;16.80;;
36817;SDS011;22761;51.542;16.450;2024-03-23T02:22:46;27.60;;;16.10;;
36817;SDS011;22761;51.542;16.450;2024-03-23T02:25:13;23.00;;;15.60;;
36817;SDS011;22761;51.542;16.450;2024-03-23T02:27:41;27.80;;;17.30;;
36817;SDS011;22761;51.542;16.450;2024-03-23T02:30:09;26.90;;;17.90;;
36817;SDS011;22761;51.542;16.450;2024-03-23T02:32:38;28.80;;;18.40;;
36817;SDS011;22761;51.542;16.450;2024-03-23T02:35:06;25.80;;;18.30;;
36817;SDS011;22761;51.542;16.450;2024-03-23T02:37:33;26.80;;;17.30;;
36817;SDS011;22761;51.542;16.450;2024-03-23T02:40:01;28.00;;;18.10;;
36817;SDS011;22761;51.542;16.450;2024-03-23T02:42:30;27.30;;;16.60;;
36817;SDS011;22761;51.542;16.450;2024-03-23T02:44:58;26.00;;;16.90;;
36817;SDS011;22761;51.542;16.450;2024-03-23T02:47:26;27.10;;;17.10;;
36817;SDS011;22761;51.542;16.450;2024-03-23T02:49:54;26.20;;;15.70;;
36817;SDS011;22761;51.542;16.450;2024-03-23T02:52:22;22.40;;;15.00;;
36817;SDS011;22761;51.542;16.450;2024-03-23T02:54:50;22.90;;;15.10;;
36817;SDS011;22761;51.542;16.450;2024-03-23T02:57:18;26.50;;;17.40;;
36817;SDS011;22761;51.542;16.450;2024-03-23T02:59:46;28.00;;;17.10;;
36817;SDS011;22761;51.542;16.450;2024-03-23T03:02:15;26.80;;;17.40;;
36817;SDS011;22761;51.542;16.450;2024-03-23T03:04:43;26.30;;;17.00;;
36817;SDS011;22761;51.542;16.450;2024-03-23T03:07:11;26.80;;;16.30;;
36817;SDS011;22761;51.542;16.450;2024-03-23T03:09:39;25.80;;;16.90;;
36817;SDS011;22761;51.542;16.450;2024-03-23T03:12:07;27.50;;;17.50;;
36817;SDS011;22761;51.542;16.450;2024-03-23T03:14:35;28.40;;;16.90;;
36817;SDS011;22761;51.542;16.450;2024-03-23T03:17:03;28.90;;;16.60;;
36817;SDS011;22761;51.542;16.450;2024-03-23T03:19:32;27.30;;;17.20;;
36817;SDS011;22761;51.542;16.450;2024-03-23T03:22:00;26.60;;;16.00;;
36817;SDS011;22761;51.542;16.450;2024-03-23T03:24:28;28.30;;;17.30;;
36817;SDS011;22761;51.542;16.450;2024-03-23T03:26:56;25.00;;;17.20;;
36817;SDS011;22761;51.542;16.450;2024-03-23T03:29:25;25.80;;;16.70;;
36817;SDS011;22761;51.542;16.450;2024-03-23T03:31:53;27.20;;;17.40;;
36817;SDS011;22761;51.542;16.450;2024-03-23T03:34:21;29.00;;;17.90;;
36817;SDS011;22761;51.542;16.450;2024-03-23T03:36:49;25.30;;;17.80;;
36817;SDS011;22761;51.542;16.450;2024-03-23T03:39:17;24.40;;;17.00;;
36817;SDS011;22761;51.542;16.450;2024-03-23T03:41:45;25.60;;;16.70;;
36817;SDS011;22761;51.542;16.450;2024-03-23T03:44:13;28.80;;;17.60;;
36817;SDS011;22761;51.542;16.450;2024-03-23T03:46:41;26.20;;;16.90;;
36817;SDS011;22761;51.542;16.450;2024-03-23T03:49:09;26.80;;;17.30;;
36817;SDS011;22761;51.542;16.450;2024-03-23T03:51:37;25.80;;;18.10;;
36817;SDS011;22761;51.542;16.450;2024-03-23T03:54:05;27.00;;;17.30;;
36817;SDS011;22761;51.542;16.450;2024-03-23T03:56:32;31.10;;;18.90;;
36817;SDS011;22761;51.542;16.450;2024-03-23T03:59:00;26.60;;;17.40;;
36817;SDS011;22761;51.542;16.450;2024-03-23T04:01:28;27.40;;;17.30;;
36817;SDS011;22761;51.542;16.450;2024-03-23T04:03:56;26.80;;;17.70;;
36817;SDS011;22761;51.542;16.450;2024-03-23T04:06:24;24.10;;;17.10;;
36817;SDS011;22761;51.542;16.450;2024-03-23T04:08:52;26.30;;;17.00;;
36817;SDS011;22761;51.542;16.450;2024-03-23T04:11:20;24.30;;;16.30;;
36817;SDS011;22761;51.542;16.450;2024-03-23T04:13:48;24.80;;;15.70;;
36817;SDS011;22761;51.542;16.450;2024-03-23T04:16:28;25.70;;;16.80;;
36817;SDS011;22761;51.542;16.450;2024-03-23T04:18:57;21.20;;;14.60;;
36817;SDS011;22761;51.542;16.450;2024-03-23T04:21:25;22.60;;;14.30;;
36817;SDS011;22761;51.542;16.450;2024-03-23T04:23:53;20.30;;;14.20;;
36817;SDS011;22761;51.542;16.450;2024-03-23T04:26:20;17.80;;;12.20;;
36817;SDS011;22761;51.542;16.450;2024-03-23T04:28:48;15.30;;;11.80;;
36817;SDS011;22761;51.542;16.450;2024-03-23T04:31:16;21.60;;;12.70;;
36817;SDS011;22761;51.542;16.450;2024-03-23T04:33:44;17.80;;;12.10;;
36817;SDS011;22761;51.542;16.450;2024-03-23T04:36:12;17.70;;;11.70;;
36817;SDS011;22761;51.542;16.450;2024-03-23T04:38:40;24.60;;;15.50;;
36817;SDS011;22761;51.542;16.450;2024-03-23T04:41:09;17.00;;;12.00;;
36817;SDS011;22761;51.542;16.450;2024-03-23T04:43:37;21.00;;;14.10;;
36817;SDS011;22761;51.542;16.450;2024-03-23T04:46:05;23.70;;;15.90;;
36817;SDS011;22761;51.542;16.450;2024-03-23T04:48:33;22.80;;;14.60;;
36817;SDS011;22761;51.542;16.450;2024-03-23T04:51:01;24.30;;;16.20;;
36817;SDS011;22761;51.542;16.450;2024-03-23T04:53:29;26.00;;;15.90;;
36817;SDS011;22761;51.542;16.450;2024-03-23T04:55:57;28.20;;;15.70;;
36817;SDS011;22761;51.542;16.450;2024-03-23T04:58:26;24.20;;;16.30;;
36817;SDS011;22761;51.542;16.450;2024-03-23T05:00:55;27.50;;;17.60;;
36817;SDS011;22761;51.542;16.450;2024-03-23T05:03:23;26.90;;;18.20;;
36817;SDS011;22761;51.542;16.450;2024-03-23T05:05:52;29.30;;;17.80;;
36817;SDS011;22761;51.542;16.450;2024-03-23T05:08:20;21.00;;;14.00;;
36817;SDS011;22761;51.542;16.450;2024-03-23T05:10:48;22.40;;;14.80;;
36817;SDS011;22761;51.542;16.450;2024-03-23T05:13:16;25.90;;;16.50;;
36817;SDS011;22761;51.542;16.450;2024-03-23T05:15:44;26.70;;;16.80;;
36817;SDS011;22761;51.542;16.450;2024-03-23T05:18:12;28.30;;;18.00;;
36817;SDS011;22761;51.542;16.450;2024-03-23T05:20:40;29.70;;;18.40;;
36817;SDS011;22761;51.542;16.450;2024-03-23T05:23:08;27.50;;;18.20;;
36817;SDS011;22761;51.542;16.450;2024-03-23T05:25:35;24.60;;;16.60;;
36817;SDS011;22761;51.542;16.450;2024-03-23T05:28:03;26.10;;;16.90;;
36817;SDS011;22761;51.542;16.450;2024-03-23T05:30:31;26.80;;;17.10;;
36817;SDS011;22761;51.542;16.450;2024-03-23T05:32:59;26.70;;;16.20;;
36817;SDS011;22761;51.542;16.450;2024-03-23T05:35:27;25.60;;;16.10;;
36817;SDS011;22761;51.542;16.450;2024-03-23T05:37:55;25.00;;;17.00;;
36817;SDS011;22761;51.542;16.450;2024-03-23T05:40:23;24.80;;;16.40;;
36817;SDS011;22761;51.542;16.450;2024-03-23T05:42:52;27.30;;;16.80;;
36817;SDS011;22761;51.542;16.450;2024-03-23T05:45:26;27.00;;;16.30;;
36817;SDS011;22761;51.542;16.450;2024-03-23T05:47:54;25.20;;;16.80;;
36817;SDS011;22761;51.542;16.450;2024-03-23T05:50:24;28.40;;;17.80;;
36817;SDS011;22761;51.542;16.450;2024-03-23T05:52:52;27.00;;;17.90;;
36817;SDS011;22761;51.542;16.450;2024-03-23T05:55:20;27.70;;;17.60;;
36817;SDS011;22761;51.542;16.450;2024-03-23T05:57:47;27.90;;;18.20;;
36817;SDS011;22761;51.542;16.450;2024-03-23T06:00:15;24.90;;;17.40;;
36817;SDS011;22761;51.542;16.450;2024-03-23T06:02:43;26.30;;;17.00;;
36817;SDS011;22761;51.542;16.450;2024-03-23T06:05:14;28.40;;;17.50;;
36817;SDS011;22761;51.542;16.450;2024-03-23T06:07:42;25.70;;;16.60;;
36817;SDS011;22761;51.542;16.450;2024-03-23T06:10:10;25.70;;;17.00;;
36817;SDS011;22761;51.542;16.450;2024-03-23T06:12:38;23.90;;;16.00;;
36817;SDS011;22761;51.542;16.450;2024-03-23T06:15:06;26.90;;;16.50;;
36817;SDS011;22761;51.542;16.450;2024-03-23T06:17:41;23.10;;;16.00;;
36817;SDS011;22761;51.542;16.450;2024-03-23T06:20:09;25.00;;;16.30;;
36817;SDS011;22761;51.542;16.450;2024-03-23T06:22:37;24.90;;;16.80;;
36817;SDS011;22761;51.542;16.450;2024-03-23T06:25:06;26.20;;;17.30;;
36817;SDS011;22761;51.542;16.450;2024-03-23T06:27:35;27.90;;;17.50;;
36817;SDS011;22761;51.542;16.450;2024-03-23T06:30:03;25.00;;;16.60;;
36817;SDS011;22761;51.542;16.450;2024-03-23T06:32:31;25.00;;;17.30;;
36817;SDS011;22761;51.542;16.450;2024-03-23T06:34:59;27.50;;;18.00;;
36817;SDS011;22761;51.542;16.450;2024-03-23T06:37:27;26.30;;;17.00;;
36817;SDS011;22761;51.542;16.450;2024-03-23T06:39:56;26.30;;;16.70;;
36817;SDS011;22761;51.542;16.450;2024-03-23T06:42:24;23.70;;;16.50;;
36817;SDS011;22761;51.542;16.450;2024-03-23T06:44:51;28.10;;;17.30;;
36817;SDS011;22761;51.542;16.450;2024-03-23T06:47:19;25.30;;;17.40;;
36817;SDS011;22761;51.542;16.450;2024-03-23T06:49:47;27.80;;;17.60;;
36817;SDS011;22761;51.542;16.450;2024-03-23T06:52:15;26.80;;;17.60;;
36817;SDS011;22761;51.542;16.450;2024-03-23T06:54:43;26.00;;;16.60;;
36817;SDS011;22761;51.542;16.450;2024-03-23T06:59:41;23.10;;;15.90;;
36817;SDS011;22761;51.542;16.450;2024-03-23T07:02:09;26.30;;;16.00;;
36817;SDS011;22761;51.542;16.450;2024-03-23T07:04:37;23.80;;;16.90;;
36817;SDS011;22761;51.542;16.450;2024-03-23T07:07:07;29.30;;;17.80;;
36817;SDS011;22761;51.542;16.450;2024-03-23T07:09:34;24.60;;;17.10;;
36817;SDS011;22761;51.542;16.450;2024-03-23T07:12:02;26.10;;;16.40;;
36817;SDS011;22761;51.542;16.450;2024-03-23T07:14:30;29.10;;;18.10;;
36817;SDS011;22761;51.542;16.450;2024-03-23T07:16:58;25.20;;;16.90;;
36817;SDS011;22761;51.542;16.450;2024-03-23T07:19:26;27.20;;;17.10;;
36817;SDS011;22761;51.542;16.450;2024-03-23T07:21:54;26.90;;;17.00;;
36817;SDS011;22761;51.542;16.450;2024-03-23T07:24:23;25.50;;;16.70;;
36817;SDS011;22761;51.542;16.450;2024-03-23T07:26:51;27.50;;;18.10;;
36817;SDS011;22761;51.542;16.450;2024-03-23T07:29:21;24.70;;;17.50;;
36817;SDS011;22761;51.542;16.450;2024-03-23T07:31:50;24.70;;;16.50;;
36817;SDS011;22761;51.542;16.450;2024-03-23T07:34:18;25.60;;;17.20;;
36817;SDS011;22761;51.542;16.450;2024-03-23T07:36:46;25.10;;;16.10;;
36817;SDS011;22761;51.542;16.450;2024-03-23T07:39:14;23.10;;;16.80;;
36817;SDS011;22761;51.542;16.450;2024-03-23T07:41:45;25.90;;;17.10;;
36817;SDS011;22761;51.542;16.450;2024-03-23T07:44:13;21.70;;;15.30;;
36817;SDS011;22761;51.542;16.450;2024-03-23T07:46:41;23.20;;;16.30;;
36817;SDS011;22761;51.542;16.450;2024-03-23T07:49:08;25.30;;;16.60;;
36817;SDS011;22761;51.542;16.450;2024-03-23T07:51:36;23.40;;;16.50;;
36817;SDS011;22761;51.542;16.450;2024-03-23T07:54:06;24.40;;;17.40;;
36817;SDS011;22761;51.542;16.450;2024-03-23T07:56:34;24.90;;;17.50;;
36817;SDS011;22761;51.542;16.450;2024-03-23T07:59:02;23.10;;;16.10;;
36817;SDS011;22761;51.542;16.450;2024-03-23T08:01:31;25.90;;;17.20;;
36817;SDS011;22761;51.542;16.450;2024-03-23T08:03:59;26.80;;;18.70;;
36817;SDS011;22761;51.542;16.450;2024-03-23T08:06:27;25.60;;;17.80;;
36817;SDS011;22761;51.542;16.450;2024-03-23T08:09:00;25.60;;;18.10;;
36817;SDS011;22761;51.542;16.450;2024-03-23T08:11:29;25.70;;;17.80;;
36817;SDS011;22761;51.542;16.450;2024-03-23T08:13:58;24.90;;;18.40;;
36817;SDS011;22761;51.542;16.450;2024-03-23T08:16:26;24.80;;;18.20;;
36817;SDS011;22761;51.542;16.450;2024-03-23T08:18:54;25.10;;;17.00;;
36817;SDS011;22761;51.542;16.450;2024-03-23T08:21:25;23.30;;;17.40;;
36817;SDS011;22761;51.542;16.450;2024-03-23T08:23:54;24.90;;;18.60;;
36817;SDS011;22761;51.542;16.450;2024-03-23T08:26:22;25.50;;;18.30;;
36817;SDS011;22761;51.542;16.450;2024-03-23T08:28:50;28.70;;;19.20;;
36817;SDS011;22761;51.542;16.450;2024-03-23T08:31:17;25.90;;;19.90;;
36817;SDS011;22761;51.542;16.450;2024-03-23T08:33:45;26.60;;;18.00;;
36817;SDS011;22761;51.542;16.450;2024-03-23T08:36:15;27.10;;;18.70;;
36817;SDS011;22761;51.542;16.450;2024-03-23T08:38:44;23.70;;;17.10;;
36817;SDS011;22761;51.542;16.450;2024-03-23T08:41:12;25.70;;;18.60;;
36817;SDS011;22761;51.542;16.450;2024-03-23T08:43:44;28.90;;;19.50;;
36817;SDS011;22761;51.542;16.450;2024-03-23T08:46:15;24.70;;;18.20;;
36817;SDS011;22761;51.542;16.450;2024-03-23T08:48:45;23.20;;;17.80;;
36817;SDS011;22761;51.542;16.450;2024-03-23T08:53:42;24.60;;;17.00;;
36817;SDS011;22761;51.542;16.450;2024-03-23T08:56:11;24.60;;;18.00;;
36817;SDS011;22761;51.542;16.450;2024-03-23T08:58:39;23.60;;;16.70;;
36817;SDS011;22761;51.542;16.450;2024-03-23T09:01:08;24.40;;;17.20;;
36817;SDS011;22761;51.542;16.450;2024-03-23T09:03:37;23.60;;;17.30;;
36817;SDS011;22761;51.542;16.450;2024-03-23T09:06:09;26.60;;;18.30;;
36817;SDS011;22761;51.542;16.450;2024-03-23T09:08:38;24.40;;;17.70;;
36817;SDS011;22761;51.542;16.450;2024-03-23T09:11:09;30.10;;;18.70;;
36817;SDS011;22761;51.542;16.450;2024-03-23T09:13:38;23.60;;;17.60;;
36817;SDS011;22761;51.542;16.450;2024-03-23T09:16:06;23.60;;;17.10;;
36817;SDS011;22761;51.542;16.450;2024-03-23T09:18:35;21.60;;;16.90;;
36817;SDS011;22761;51.542;16.450;2024-03-23T09:21:04;23.60;;;16.70;;
36817;SDS011;22761;51.542;16.450;2024-03-23T09:23:33;22.70;;;17.90;;
36817;SDS011;22761;51.542;16.450;2024-03-23T09:26:04;24.70;;;18.50;;
36817;SDS011;22761;51.542;16.450;2024-03-23T09:28:32;24.50;;;17.40;;
36817;SDS011;22761;51.542;16.450;2024-03-23T09:31:04;26.60;;;18.30;;
36817;SDS011;22761;51.542;16.450;2024-03-23T09:33:33;26.70;;;18.60;;
36817;SDS011;22761;51.542;16.450;2024-03-23T09:36:05;28.00;;;19.60;;
36817;SDS011;22761;51.542;16.450;2024-03-23T09:38:34;29.20;;;19.80;;
36817;SDS011;22761;51.542;16.450;2024-03-23T09:41:06;28.60;;;19.30;;
36817;SDS011;22761;51.542;16.450;2024-03-23T09:43:35;27.50;;;19.50;;
36817;SDS011;22761;51.542;16.450;2024-03-23T09:46:03;27.70;;;19.90;;
36817;SDS011;22761;51.542;16.450;2024-03-23T09:48:32;27.90;;;20.60;;
36817;SDS011;22761;51.542;16.450;2024-03-23T09:51:00;29.80;;;20.40;;
36817;SDS011;22761;51.542;16.450;2024-03-23T09:53:30;29.20;;;21.30;;
36817;SDS011;22761;51.542;16.450;2024-03-23T09:56:00;28.40;;;22.00;;
36817;SDS011;22761;51.542;16.450;2024-03-23T09:58:28;27.00;;;20.60;;
36817;SDS011;22761;51.542;16.450;2024-03-23T10:00:56;28.40;;;20.00;;
36817;SDS011;22761;51.542;16.450;2024-03-23T10:03:24;28.10;;;20.60;;
36817;SDS011;22761;51.542;16.450;2024-03-23T10:06:02;31.20;;;21.60;;
36817;SDS011;22761;51.542;16.450;2024-03-23T10:08:31;30.70;;;21.60;;
36817;SDS011;22761;51.542;16.450;2024-03-23T10:11:15;30.30;;;21.50;;
36817;SDS011;22761;51.542;16.450;2024-03-23T10:13:44;29.10;;;22.30;;
36817;SDS011;22761;51.542;16.450;2024-03-23T10:16:23;29.30;;;21.10;;
36817;SDS011;22761;51.542;16.450;2024-03-23T10:18:51;31.70;;;21.20;;
36817;SDS011;22761;51.542;16.450;2024-03-23T10:21:19;29.30;;;21.20;;
36817;SDS011;22761;51.542;16.450;2024-03-23T10:23:47;30.80;;;21.00;;
36817;SDS011;22761;51.542;16.450;2024-03-23T10:26:18;27.70;;;22.00;;
36817;SDS011;22761;51.542;16.450;2024-03-23T10:28:59;30.00;;;20.70;;
36817;SDS011;22761;51.542;16.450;2024-03-23T10:31:30;33.60;;;22.10;;
36817;SDS011;22761;51.542;16.450;2024-03-23T10:33:58;27.00;;;20.40;;
36817;SDS011;22761;51.542;16.450;2024-03-23T10:36:28;28.30;;;20.80;;
36817;SDS011;22761;51.542;16.450;2024-03-23T10:38:57;27.40;;;21.00;;
36817;SDS011;22761;51.542;16.450;2024-03-23T10:41:27;30.40;;;21.20;;
36817;SDS011;22761;51.542;16.450;2024-03-23T10:43:57;28.10;;;20.90;;
36817;SDS011;22761;51.542;16.450;2024-03-23T10:46:25;28.00;;;19.70;;
36817;SDS011;22761;51.542;16.450;2024-03-23T10:48:54;27.40;;;20.50;;
36817;SDS011;22761;51.542;16.450;2024-03-23T10:51:22;30.40;;;22.20;;
36817;SDS011;22761;51.542;16.450;2024-03-23T10:53:49;30.90;;;21.20;;
36817;SDS011;22761;51.542;16.450;2024-03-23T10:56:18;30.10;;;21.30;;
36817;SDS011;22761;51.542;16.450;2024-03-23T10:58:47;26.00;;;20.30;;
36817;SDS011;22761;51.542;16.450;2024-03-23T11:01:16;26.60;;;19.90;;
36817;SDS011;22761;51.542;16.450;2024-03-23T11:03:45;26.70;;;18.40;;
36817;SDS011;22761;51.542;16.450;2024-03-23T11:09:02;22.90;;;17.80;;
36817;SDS011;22761;51.542;16.450;2024-03-23T11:11:30;24.50;;;18.00;;
36817;SDS011;22761;51.542;16.450;2024-03-23T11:14:00;26.40;;;18.50;;
36817;SDS011;22761;51.542;16.450;2024-03-23T11:16:28;22.30;;;17.20;;
36817;SDS011;22761;51.542;16.450;2024-03-23T11:22:07;23.10;;;16.90;;
36817;SDS011;22761;51.542;16.450;2024-03-23T11:24:35;25.90;;;16.70;;
36817;SDS011;22761;51.542;16.450;2024-03-23T11:27:15;21.60;;;16.60;;
36817;SDS011;22761;51.542;16.450;2024-03-23T11:29:43;21.50;;;17.20;;
36817;SDS011;22761;51.542;16.450;2024-03-23T11:32:11;24.00;;;17.50;;
36817;SDS011;22761;51.542;16.450;2024-03-23T11:34:41;22.90;;;17.50;;
36817;SDS011;22761;51.542;16.450;2024-03-23T11:37:09;22.10;;;16.20;;
36817;SDS011;22761;51.542;16.450;2024-03-23T11:39:37;21.10;;;16.30;;
36817;SDS011;22761;51.542;16.450;2024-03-23T11:42:05;20.00;;;16.20;;
36817;SDS011;22761;51.542;16.450;2024-03-23T11:44:33;20.40;;;14.70;;
36817;SDS011;22761;51.542;16.450;2024-03-23T11:47:07;22.60;;;17.20;;
36817;SDS011;22761;51.542;16.450;2024-03-23T11:49:36;20.90;;;15.60;;
36817;SDS011;22761;51.542;16.450;2024-03-23T11:52:08;20.40;;;15.60;;
36817;SDS011;22761;51.542;16.450;2024-03-23T11:54:36;18.30;;;15.40;;
36817;SDS011;22761;51.542;16.450;2024-03-23T11:57:07;20.20;;;14.50;;
36817;SDS011;22761;51.542;16.450;2024-03-23T11:59:37;20.60;;;14.50;;
36817;SDS011;22761;51.542;16.450;2024-03-23T12:02:06;17.40;;;13.80;;
36817;SDS011;22761;51.542;16.450;2024-03-23T12:04:39;18.10;;;14.60;;
36817;SDS011;22761;51.542;16.450;2024-03-23T12:07:11;18.60;;;14.80;;
36817;SDS011;22761;51.542;16.450;2024-03-23T12:09:40;18.50;;;14.90;;
36817;SDS011;22761;51.542;16.450;2024-03-23T12:12:13;18.80;;;14.80;;
36817;SDS011;22761;51.542;16.450;2024-03-23T12:14:43;20.50;;;14.90;;
36817;SDS011;22761;51.542;16.450;2024-03-23T12:17:14;17.00;;;14.60;;
36817;SDS011;22761;51.542;16.450;2024-03-23T12:19:43;17.10;;;14.20;;
36817;SDS011;22761;51.542;16.450;2024-03-23T12:22:12;14.10;;;11.50;;
36817;SDS011;22761;51.542;16.450;2024-03-23T12:24:40;14.00;;;11.70;;
36817;SDS011;22761;51.542;16.450;2024-03-23T12:27:13;14.70;;;11.40;;
36817;SDS011;22761;51.542;16.450;2024-03-23T12:29:41;10.60;;;9.30;;
36817;SDS011;22761;51.542;16.450;2024-03-23T12:32:11;12.90;;;8.70;;
36817;SDS011;22761;51.542;16.450;2024-03-23T12:34:39;8.90;;;6.40;;
36817;SDS011;22761;51.542;16.450;2024-03-23T12:37:08;8.90;;;6.80;;
36817;SDS011;22761;51.542;16.450;2024-03-23T12:39:37;8.30;;;6.30;;
36817;SDS011;22761;51.542;16.450;2024-03-23T12:42:05;8.10;;;6.20;;
36817;SDS011;22761;51.542;16.450;2024-03-23T12:44:33;7.00;;;6.00;;
36817;SDS011;22761;51.542;16.450;2024-03-23T12:47:01;6.80;;;5.80;;
36817;SDS011;22761;51.542;16.450;2024-03-23T12:49:29;8.60;;;6.00;;
36817;SDS011;22761;51.542;16.450;2024-03-23T12:51:57;7.20;;;5.60;;
36817;SDS011;22761;51.542;16.450;2024-03-23T12:54:25;5.50;;;4.10;;
36817;SDS011;22761;51.542;16.450;2024-03-23T12:56:53;5.60;;;4.30;;
36817;SDS011;22761;51.542;16.450;2024-03-23T12:59:21;4.30;;;3.00;;
36817;SDS011;22761;51.542;16.450;2024-03-23T13:01:50;3.90;;;2.90;;
36817;SDS011;22761;51.542;16.450;2024-03-23T13:04:17;4.70;;;2.50;;
36817;SDS011;22761;51.542;16.450;2024-03-23T13:06:45;1.80;;;1.60;;
36817;SDS011;22761;51.542;16.450;2024-03-23T13:09:13;1.90;;;1.00;;
36817;SDS011;22761;51.542;16.450;2024-03-23T13:11:41;1.10;;;0.80;;
36817;SDS011;22761;51.542;16.450;2024-03-23T13:14:09;2.00;;;1.00;;
36817;SDS011;22761;51.542;16.450;2024-03-23T13:16:37;2.10;;;1.30;;
36817;SDS011;22761;51.542;16.450;2024-03-23T13:19:05;1.20;;;0.90;;
36817;SDS011;22761;51.542;16.450;2024-03-23T13:21:33;1.80;;;0.60;;
36817;SDS011;22761;51.542;16.450;2024-03-23T13:24:01;2.00;;;1.00;;
36817;SDS011;22761;51.542;16.450;2024-03-23T13:26:29;1.80;;;0.70;;
36817;SDS011;22761;51.542;16.450;2024-03-23T13:28:57;1.60;;;0.70;;
36817;SDS011;22761;51.542;16.450;2024-03-23T13:31:25;1.00;;;0.60;;
36817;SDS011;22761;51.542;16.450;2024-03-23T13:33:52;3.10;;;0.60;;
36817;SDS011;22761;51.542;16.450;2024-03-23T13:36:20;1.40;;;0.70;;
36817;SDS011;22761;51.542;16.450;2024-03-23T13:38:48;1.80;;;0.40;;
36817;SDS011;22761;51.542;16.450;2024-03-23T13:41:16;0.60;;;0.30;;
36817;SDS011;22761;51.542;16.450;2024-03-23T13:43:44;1.40;;;0.40;;
36817;SDS011;22761;51.542;16.450;2024-03-23T13:46:12;1.80;;;0.60;;
36817;SDS011;22761;51.542;16.450;2024-03-23T13:48:40;1.90;;;0.90;;
36817;SDS011;22761;51.542;16.450;2024-03-23T13:51:10;15.40;;;6.90;;
36817;SDS011;22761;51.542;16.450;2024-03-23T13:53:38;2.70;;;1.00;;
36817;SDS011;22761;51.542;16.450;2024-03-23T13:56:06;2.30;;;1.40;;
36817;SDS011;22761;51.542;16.450;2024-03-23T13:58:34;7.00;;;2.80;;
36817;SDS011;22761;51.542;16.450;2024-03-23T14:01:02;1.40;;;0.80;;
36817;SDS011;22761;51.542;16.450;2024-03-23T14:03:30;1.90;;;1.20;;
36817;SDS011;22761;51.542;16.450;2024-03-23T14:05:58;2.20;;;0.70;;
36817;SDS011;22761;51.542;16.450;2024-03-23T14:08:29;1.80;;;0.70;;
36817;SDS011;22761;51.542;16.450;2024-03-23T14:11:01;1.20;;;0.70;;
36817;SDS011;22761;51.542;16.450;2024-03-23T14:13:33;2.60;;;1.40;;
36817;SDS011;22761;51.542;16.450;2024-03-23T14:16:01;1.90;;;1.60;;
36817;SDS011;22761;51.542;16.450;2024-03-23T14:18:29;1.40;;;0.90;;
36817;SDS011;22761;51.542;16.450;2024-03-23T14:20:58;1.10;;;0.50;;
36817;SDS011;22761;51.542;16.450;2024-03-23T14:23:28;1.20;;;0.50;;
36817;SDS011;22761;51.542;16.450;2024-03-23T14:26:02;0.60;;;0.50;;
36817;SDS011;22761;51.542;16.450;2024-03-23T14:28:31;0.80;;;0.40;;
36817;SDS011;22761;51.542;16.450;2024-03-23T14:30:59;1.00;;;0.70;;
36817;SDS011;22761;51.542;16.450;2024-03-23T14:33:27;2.90;;;1.00;;
36817;SDS011;22761;51.542;16.450;2024-03-23T14:35:55;1.20;;;0.80;;
36817;SDS011;22761;51.542;16.450;2024-03-23T14:38:24;1.50;;;0.80;;
36817;SDS011;22761;51.542;16.450;2024-03-23T14:40:52;2.70;;;0.70;;
36817;SDS011;22761;51.542;16.450;2024-03-23T14:43:21;3.30;;;1.60;;
36817;SDS011;22761;51.542;16.450;2024-03-23T14:46:10;2.00;;;1.40;;
36817;SDS011;22761;51.542;16.450;2024-03-23T14:48:37;4.00;;;1.40;;
36817;SDS011;22761;51.542;16.450;2024-03-23T14:51:05;2.20;;;1.20;;
36817;SDS011;22761;51.542;16.450;2024-03-23T14:53:37;2.80;;;1.10;;
36817;SDS011;22761;51.542;16.450;2024-03-23T14:56:08;1.70;;;1.10;;
36817;SDS011;22761;51.542;16.450;2024-03-23T14:58:42;3.40;;;1.70;;
36817;SDS011;22761;51.542;16.450;2024-03-23T15:01:10;3.00;;;2.00;;
36817;SDS011;22761;51.542;16.450;2024-03-23T15:03:39;1.80;;;1.20;;
36817;SDS011;22761;51.542;16.450;2024-03-23T15:06:07;3.40;;;2.10;;
36817;SDS011;22761;51.542;16.450;2024-03-23T15:08:37;1.60;;;1.30;;
36817;SDS011;22761;51.542;16.450;2024-03-23T15:11:05;1.40;;;0.80;;
36817;SDS011;22761;51.542;16.450;2024-03-23T15:13:34;2.70;;;1.50;;
36817;SDS011;22761;51.542;16.450;2024-03-23T15:16:03;1.60;;;0.70;;
36817;SDS011;22761;51.542;16.450;2024-03-23T15:18:33;2.70;;;1.80;;
36817;SDS011;22761;51.542;16.450;2024-03-23T15:21:03;2.40;;;1.20;;
36817;SDS011;22761;51.542;16.450;2024-03-23T15:23:34;3.50;;;1.70;;
36817;SDS011;22761;51.542;16.450;2024-03-23T15:26:02;3.90;;;2.70;;